Summertown, Tennessee
Current Conditions -  °F | °C
As of 1:15 AM on Saturday 20 Dec 2014 (Local Time) from KSYI Reporting Station
Overcast Overcast  
Wind Chill: 32°   Ceiling: 8000
Heat Index: 36°   Visibility: 10mi
Dew Point: 32°   Wind: 5mph
Humidity: 87%   Direction: 360°N
Pressure: 30.19"   Gusts: NA
Location:  35.44°N, 87.3°W
Report Text: KSYI 200715Z AUTO 36004KT 10SM FEW070 BKN080 OVC095 02/00 A3019 RMK
Loading
Personal Weather Stations






























Interactive Weather Map New forecast layout! Learn more

10-Day Weather Forecast

Advertisements
Track Severe Weather on mobile